createdAt,value
2022-12-17T00:00:00.303Z,973.78
2022-12-17T00:01:00.404Z,973.81
2022-12-17T00:02:00.274Z,973.83
2022-12-17T00:03:00.331Z,973.89
2022-12-17T00:04:00.359Z,973.89
2022-12-17T00:05:00.196Z,973.91
2022-12-17T00:06:00.171Z,973.90
2022-12-17T00:07:00.203Z,973.89
2022-12-17T00:08:00.132Z,973.93
2022-12-17T00:09:00.112Z,973.92
2022-12-17T00:10:00.103Z,973.97
2022-12-17T00:11:00.085Z,973.96
2022-12-17T00:12:00.100Z,974.05
2022-12-17T00:13:00.032Z,974.02
2022-12-17T00:14:00.008Z,974.01
2022-12-17T00:14:59.991Z,974.02
2022-12-17T00:16:00.025Z,974.01
2022-12-17T00:16:59.949Z,974.05
2022-12-17T00:17:59.946Z,974.04
2022-12-17T00:18:59.911Z,974.11
2022-12-17T00:19:59.888Z,974.09
2022-12-17T00:20:59.869Z,974.15
2022-12-17T00:21:59.848Z,974.11
2022-12-17T00:22:59.829Z,974.12
2022-12-17T00:23:59.806Z,974.16
2022-12-17T00:24:59.787Z,974.13
2022-12-17T00:25:59.764Z,974.18
2022-12-17T00:26:59.747Z,974.16
2022-12-17T00:27:59.725Z,974.18
2022-12-17T00:28:59.707Z,974.20
2022-12-17T00:29:59.692Z,974.20
2022-12-17T00:30:59.728Z,974.24
2022-12-17T00:31:59.642Z,974.22
2022-12-17T00:32:59.624Z,974.27
2022-12-17T00:33:59.622Z,974.30
2022-12-17T00:34:59.583Z,974.29
2022-12-17T00:35:59.572Z,974.34
2022-12-17T00:36:59.543Z,974.35
2022-12-17T00:37:59.519Z,974.33
2022-12-17T00:38:59.502Z,974.37
2022-12-17T00:39:59.680Z,974.34
2022-12-17T00:40:59.461Z,974.38
2022-12-17T00:41:59.438Z,974.38
2022-12-17T00:42:59.421Z,974.41
2022-12-17T00:43:59.398Z,974.41
2022-12-17T00:44:59.380Z,974.40
2022-12-17T00:45:59.359Z,974.38
2022-12-17T00:46:59.398Z,974.41
2022-12-17T00:47:59.317Z,974.39
2022-12-17T00:48:59.298Z,974.44
2022-12-17T00:49:59.295Z,974.41
2022-12-17T00:50:59.257Z,974.44
2022-12-17T00:51:59.236Z,974.45
2022-12-17T00:52:59.220Z,974.47
2022-12-17T00:53:59.193Z,974.43
2022-12-17T00:54:59.178Z,974.46
2022-12-17T00:55:59.206Z,974.50
2022-12-17T00:56:59.137Z,974.50
2022-12-17T00:57:59.114Z,974.53
2022-12-17T00:58:59.100Z,974.49
2022-12-17T00:59:59.073Z,974.52
2022-12-17T01:00:59.109Z,974.53
2022-12-17T01:01:59.181Z,974.58
2022-12-17T01:02:59.186Z,974.56
2022-12-17T01:03:58.995Z,974.55
2022-12-17T01:04:58.978Z,974.59
2022-12-17T01:05:58.968Z,974.60
2022-12-17T01:06:58.936Z,974.65
2022-12-17T01:07:58.912Z,974.65
2022-12-17T01:08:58.944Z,974.71
2022-12-17T01:09:58.871Z,974.70
2022-12-17T01:10:58.855Z,974.74
2022-12-17T01:11:58.831Z,974.75
2022-12-17T01:12:58.813Z,974.77
2022-12-17T01:13:58.790Z,974.77
2022-12-17T01:14:58.773Z,974.76
2022-12-17T01:15:58.829Z,974.81
2022-12-17T01:16:58.729Z,974.79
2022-12-17T01:17:58.721Z,974.79
2022-12-17T01:18:58.698Z,974.80
2022-12-17T01:19:58.672Z,974.79
2022-12-17T01:20:58.649Z,974.84
2022-12-17T01:21:58.654Z,974.90
2022-12-17T01:22:58.609Z,974.89
2022-12-17T01:23:58.593Z,974.85
2022-12-17T01:24:58.569Z,974.87
2022-12-17T01:25:58.552Z,974.88
2022-12-17T01:26:58.528Z,974.91
2022-12-17T01:27:58.510Z,974.88
2022-12-17T01:28:58.486Z,974.89
2022-12-17T01:29:58.474Z,974.90
2022-12-17T01:30:58.447Z,974.87
2022-12-17T01:31:58.497Z,974.92
2022-12-17T01:32:58.416Z,974.89
2022-12-17T01:33:58.389Z,974.89
2022-12-17T01:34:58.367Z,974.93
2022-12-17T01:35:58.350Z,974.91
2022-12-17T01:36:58.324Z,974.88
2022-12-17T01:37:58.327Z,974.93
2022-12-17T01:38:58.285Z,975.01
2022-12-17T01:39:58.269Z,974.99
2022-12-17T01:40:58.246Z,975.07
2022-12-17T01:41:58.227Z,975.04
2022-12-17T01:42:58.205Z,975.06
2022-12-17T01:43:58.189Z,975.04
2022-12-17T01:44:58.165Z,975.06
2022-12-17T01:45:58.233Z,975.05
2022-12-17T01:46:58.126Z,975.03
2022-12-17T01:47:58.108Z,975.05
2022-12-17T01:48:58.084Z,975.03
2022-12-17T01:49:58.067Z,975.00
2022-12-17T01:50:58.046Z,974.99
2022-12-17T01:51:58.026Z,975.03
2022-12-17T01:52:58.005Z,975.03
2022-12-17T01:53:58.008Z,975.08
2022-12-17T01:54:57.965Z,975.05
2022-12-17T01:55:57.950Z,975.10
2022-12-17T01:56:57.924Z,975.07
2022-12-17T01:57:57.908Z,975.12
2022-12-17T01:58:57.884Z,975.11
2022-12-17T01:59:57.868Z,975.10
2022-12-17T02:00:57.935Z,975.14
2022-12-17T02:01:58.128Z,975.08
2022-12-17T02:02:58.029Z,975.10
2022-12-17T02:03:57.788Z,975.09
2022-12-17T02:04:57.764Z,975.07
2022-12-17T02:05:57.747Z,975.12
2022-12-17T02:06:57.723Z,975.15
2022-12-17T02:07:57.708Z,975.11
2022-12-17T02:08:57.683Z,975.10
2022-12-17T02:09:57.689Z,975.07
2022-12-17T02:10:57.695Z,975.08
2022-12-17T02:11:57.628Z,975.05
2022-12-17T02:12:57.604Z,975.00
2022-12-17T02:13:57.588Z,975.06
2022-12-17T02:14:57.565Z,975.04
2022-12-17T02:15:57.547Z,975.03
2022-12-17T02:16:57.558Z,975.01
2022-12-17T02:17:57.556Z,975.02
2022-12-17T02:18:57.484Z,975.05
2022-12-17T02:19:57.465Z,975.02
2022-12-17T02:20:57.443Z,975.09
2022-12-17T02:21:57.430Z,975.04
2022-12-17T02:22:57.402Z,975.06
2022-12-17T02:23:57.385Z,975.05
2022-12-17T02:24:57.361Z,975.07
2022-12-17T02:25:57.366Z,975.07
2022-12-17T02:26:57.322Z,975.12
2022-12-17T02:27:57.303Z,975.12
2022-12-17T02:28:57.282Z,975.13
2022-12-17T02:29:57.265Z,975.15
2022-12-17T02:30:57.244Z,975.18
2022-12-17T02:31:57.267Z,975.19
2022-12-17T02:32:57.200Z,975.20
2022-12-17T02:33:57.182Z,975.16
2022-12-17T02:34:57.159Z,975.20
2022-12-17T02:35:57.143Z,975.19
2022-12-17T02:36:57.120Z,975.21
2022-12-17T02:37:57.100Z,975.22
2022-12-17T02:38:57.078Z,975.20
2022-12-17T02:39:57.060Z,975.23
2022-12-17T02:40:57.186Z,975.25
2022-12-17T02:41:57.041Z,975.22
2022-12-17T02:42:56.996Z,975.27
2022-12-17T02:43:56.979Z,975.25
2022-12-17T02:44:56.955Z,975.30
2022-12-17T02:45:57.025Z,975.32
2022-12-17T02:46:56.915Z,975.33
2022-12-17T02:47:56.899Z,975.35
2022-12-17T02:48:56.874Z,975.35
2022-12-17T02:49:56.858Z,975.35
2022-12-17T02:50:56.834Z,975.40
2022-12-17T02:51:56.819Z,975.38
2022-12-17T02:52:56.795Z,975.40
2022-12-17T02:53:56.776Z,975.41
2022-12-17T02:54:56.754Z,975.40
2022-12-17T02:55:56.735Z,975.41
2022-12-17T02:56:56.712Z,975.39
2022-12-17T02:57:56.712Z,975.42
2022-12-17T02:58:56.672Z,975.41
2022-12-17T02:59:56.657Z,975.42
2022-12-17T03:00:56.691Z,975.44
2022-12-17T03:01:56.935Z,975.43
2022-12-17T03:02:56.780Z,975.47
2022-12-17T03:03:56.574Z,975.43
2022-12-17T03:05:02.978Z,975.39
2022-12-17T03:05:56.530Z,975.43
2022-12-17T03:06:56.508Z,975.46
2022-12-17T03:07:56.490Z,975.39
2022-12-17T03:08:56.466Z,975.44
2022-12-17T03:09:56.451Z,975.48
2022-12-17T03:10:56.427Z,975.47
2022-12-17T03:11:56.408Z,975.41
2022-12-17T03:12:56.384Z,975.51
2022-12-17T03:13:56.391Z,975.49
2022-12-17T03:14:56.345Z,975.49
2022-12-17T03:15:56.329Z,975.45
2022-12-17T03:16:56.350Z,975.49
2022-12-17T03:17:56.287Z,975.50
2022-12-17T03:18:56.314Z,975.44
2022-12-17T03:19:56.250Z,975.52
2022-12-17T03:20:56.221Z,975.45
2022-12-17T03:21:56.205Z,975.48
2022-12-17T03:22:56.184Z,975.48
2022-12-17T03:23:56.215Z,975.48
2022-12-17T03:24:56.140Z,975.55
2022-12-17T03:25:56.123Z,975.51
2022-12-17T03:26:56.099Z,975.54
2022-12-17T03:27:56.084Z,975.53
2022-12-17T03:28:56.058Z,975.54
2022-12-17T03:29:56.063Z,975.56
2022-12-17T03:30:56.067Z,975.54
2022-12-17T03:31:56.001Z,975.54
2022-12-17T03:32:55.976Z,975.53
2022-12-17T03:33:55.958Z,975.54
2022-12-17T03:34:55.935Z,975.55
2022-12-17T03:35:55.921Z,975.58
2022-12-17T03:36:55.894Z,975.58
2022-12-17T03:37:55.876Z,975.61
2022-12-17T03:38:55.855Z,975.60
2022-12-17T03:39:55.838Z,975.61
2022-12-17T03:40:55.814Z,975.58
2022-12-17T03:41:55.795Z,975.54
2022-12-17T03:42:55.771Z,975.54
2022-12-17T03:43:55.755Z,975.50
2022-12-17T03:44:55.732Z,975.52
2022-12-17T03:45:55.786Z,975.51
2022-12-17T03:46:55.691Z,975.55
2022-12-17T03:47:55.672Z,975.56
2022-12-17T03:48:55.646Z,975.59
2022-12-17T03:49:55.631Z,975.60
2022-12-17T03:50:55.608Z,975.62
2022-12-17T03:51:55.590Z,975.61
2022-12-17T03:52:55.565Z,975.60
2022-12-17T03:53:55.548Z,975.63
2022-12-17T03:54:55.527Z,975.58
2022-12-17T03:55:55.509Z,975.61
2022-12-17T03:56:55.489Z,975.64
2022-12-17T03:57:55.464Z,975.63
2022-12-17T03:58:55.439Z,975.62
2022-12-17T03:59:55.424Z,975.66
2022-12-17T04:00:55.398Z,975.62
2022-12-17T04:01:55.500Z,975.61
2022-12-17T04:02:55.674Z,975.57
2022-12-17T04:03:55.341Z,975.61
2022-12-17T04:04:55.316Z,975.65
2022-12-17T04:05:55.300Z,975.62
2022-12-17T04:06:55.326Z,975.62
2022-12-17T04:07:55.256Z,975.61
2022-12-17T04:08:55.231Z,975.66
2022-12-17T04:09:55.213Z,975.59
2022-12-17T04:10:55.188Z,975.65
2022-12-17T04:11:55.173Z,975.63
2022-12-17T04:12:55.196Z,975.63
2022-12-17T04:13:55.130Z,975.61
2022-12-17T04:14:55.106Z,975.69
2022-12-17T04:15:55.124Z,975.67
2022-12-17T04:16:55.062Z,975.68
2022-12-17T04:17:55.063Z,975.68
2022-12-17T04:18:55.075Z,975.69
2022-12-17T04:19:55.004Z,975.68
2022-12-17T04:20:54.978Z,975.67
2022-12-17T04:21:54.960Z,975.68
2022-12-17T04:22:54.937Z,975.71
2022-12-17T04:23:54.919Z,975.74
2022-12-17T04:24:54.896Z,975.80
2022-12-17T04:25:54.877Z,975.82
2022-12-17T04:26:54.856Z,975.81
2022-12-17T04:27:54.886Z,975.79
2022-12-17T04:28:54.810Z,975.82
2022-12-17T04:29:54.792Z,975.82
2022-12-17T04:30:54.810Z,975.81
2022-12-17T04:31:54.751Z,975.80
2022-12-17T04:32:54.726Z,975.76
2022-12-17T04:33:54.726Z,975.77
2022-12-17T04:34:54.685Z,975.80
2022-12-17T04:35:54.668Z,975.82
2022-12-17T04:36:54.643Z,975.87
2022-12-17T04:37:54.627Z,975.87
2022-12-17T04:38:54.605Z,975.91
2022-12-17T04:39:54.584Z,975.96
2022-12-17T04:40:54.559Z,975.95
2022-12-17T04:41:54.542Z,975.96
2022-12-17T04:42:54.521Z,975.92
2022-12-17T04:43:59.597Z,975.97
2022-12-17T04:44:54.476Z,975.98
2022-12-17T04:45:54.489Z,976.02
2022-12-17T04:46:54.434Z,975.98
2022-12-17T04:47:54.416Z,975.99
2022-12-17T04:48:54.442Z,975.98
2022-12-17T04:49:54.390Z,976.00
2022-12-17T04:50:54.352Z,975.97
2022-12-17T04:51:54.335Z,975.96
2022-12-17T04:52:54.309Z,975.99
2022-12-17T04:53:54.292Z,976.01
2022-12-17T04:54:54.270Z,976.00
2022-12-17T04:55:54.249Z,975.99
2022-12-17T04:56:54.225Z,975.99
2022-12-17T04:57:54.211Z,976.02
2022-12-17T04:58:54.186Z,976.01
2022-12-17T04:59:54.166Z,976.05
2022-12-17T05:00:54.142Z,976.10
2022-12-17T05:01:54.255Z,976.09
2022-12-17T05:02:54.263Z,976.12
2022-12-17T05:03:54.149Z,976.10
2022-12-17T05:04:54.058Z,976.18
2022-12-17T05:05:54.058Z,976.12
2022-12-17T05:06:54.017Z,976.17
2022-12-17T05:07:54.000Z,976.17
2022-12-17T05:08:53.975Z,976.18
2022-12-17T05:09:53.957Z,976.13
2022-12-17T05:10:53.934Z,976.15
2022-12-17T05:11:53.916Z,976.17
2022-12-17T05:12:53.892Z,976.20
2022-12-17T05:13:53.873Z,976.14
2022-12-17T05:14:53.851Z,976.19
2022-12-17T05:15:53.899Z,976.16
2022-12-17T05:16:53.809Z,976.15
2022-12-17T05:17:53.792Z,976.18
2022-12-17T05:18:53.766Z,976.18
2022-12-17T05:19:53.749Z,976.20
2022-12-17T05:20:53.724Z,976.24
2022-12-17T05:21:53.731Z,976.21
2022-12-17T05:22:53.684Z,976.19
2022-12-17T05:23:53.665Z,976.22
2022-12-17T05:24:53.694Z,976.23
2022-12-17T05:25:53.625Z,976.27
2022-12-17T05:26:53.601Z,976.27
2022-12-17T05:27:53.587Z,976.30
2022-12-17T05:28:53.560Z,976.27
2022-12-17T05:29:53.543Z,976.31
2022-12-17T05:30:53.579Z,976.31
2022-12-17T05:31:53.507Z,976.29
2022-12-17T05:32:53.483Z,976.26
2022-12-17T05:33:53.456Z,976.30
2022-12-17T05:34:53.440Z,976.28
2022-12-17T05:35:53.415Z,976.24
2022-12-17T05:36:53.398Z,976.29
2022-12-17T05:37:53.395Z,976.29
2022-12-17T05:38:53.358Z,976.27
2022-12-17T05:39:53.333Z,976.26
2022-12-17T05:40:53.324Z,976.29
2022-12-17T05:41:53.290Z,976.32
2022-12-17T05:42:53.276Z,976.31
2022-12-17T05:43:53.250Z,976.29
2022-12-17T05:44:53.230Z,976.29
2022-12-17T05:45:53.208Z,976.32
2022-12-17T05:46:53.266Z,976.30
2022-12-17T05:47:53.170Z,976.30
2022-12-17T05:48:53.149Z,976.33
2022-12-17T05:49:53.124Z,976.36
2022-12-17T05:50:53.107Z,976.37
2022-12-17T05:51:53.084Z,976.40
2022-12-17T05:52:53.068Z,976.39
2022-12-17T05:53:53.060Z,976.38
2022-12-17T05:54:53.027Z,976.37
2022-12-17T05:55:53.002Z,976.34
2022-12-17T05:56:52.984Z,976.36
2022-12-17T05:57:56.337Z,976.37
2022-12-17T05:58:52.943Z,976.37
2022-12-17T05:59:52.920Z,976.43
2022-12-17T06:00:52.901Z,976.41
2022-12-17T06:01:52.967Z,976.44
2022-12-17T06:02:53.087Z,976.46
2022-12-17T06:03:52.973Z,976.49
2022-12-17T06:04:56.292Z,976.51
2022-12-17T06:05:52.797Z,976.52
2022-12-17T06:06:52.778Z,976.52
2022-12-17T06:07:52.765Z,976.53
2022-12-17T06:08:52.737Z,976.55
2022-12-17T06:09:52.731Z,976.54
2022-12-17T06:10:52.696Z,976.57
2022-12-17T06:11:54.719Z,976.51
2022-12-17T06:12:52.658Z,976.60
2022-12-17T06:13:52.631Z,976.54
2022-12-17T06:14:52.613Z,976.53
2022-12-17T06:15:52.673Z,976.53
2022-12-17T06:16:52.572Z,976.54
2022-12-17T06:17:52.548Z,976.57
2022-12-17T06:18:52.530Z,976.57
2022-12-17T06:19:52.708Z,976.55
2022-12-17T06:20:52.490Z,976.55
2022-12-17T06:21:52.465Z,976.57
2022-12-17T06:22:52.448Z,976.55
2022-12-17T06:23:52.426Z,976.53
2022-12-17T06:24:52.406Z,976.53
2022-12-17T06:25:52.403Z,976.55
2022-12-17T06:26:52.365Z,976.59
2022-12-17T06:27:52.341Z,976.63
2022-12-17T06:28:52.325Z,976.61
2022-12-17T06:29:52.300Z,976.56
2022-12-17T06:30:52.284Z,976.65
2022-12-17T06:31:52.354Z,976.64
2022-12-17T06:32:52.240Z,976.66
2022-12-17T06:33:52.270Z,976.69
2022-12-17T06:34:52.200Z,976.66
2022-12-17T06:35:52.176Z,976.65
2022-12-17T06:36:52.160Z,976.68
2022-12-17T06:37:52.134Z,976.69
2022-12-17T06:38:52.118Z,976.73
2022-12-17T06:39:52.094Z,976.71
2022-12-17T06:40:52.074Z,976.73
2022-12-17T06:41:52.075Z,976.73
2022-12-17T06:42:52.037Z,976.76
2022-12-17T06:43:52.012Z,976.78
2022-12-17T06:44:51.991Z,976.78
2022-12-17T06:45:51.968Z,976.82
2022-12-17T06:46:52.039Z,976.88
2022-12-17T06:47:51.927Z,976.90
2022-12-17T06:48:51.917Z,976.91
2022-12-17T06:49:55.424Z,976.91
2022-12-17T06:50:51.867Z,976.91
2022-12-17T06:51:51.845Z,976.93
2022-12-17T06:52:51.827Z,976.89
2022-12-17T06:53:51.801Z,976.86
2022-12-17T06:54:51.785Z,976.94
2022-12-17T06:55:51.760Z,976.91
2022-12-17T06:56:51.743Z,976.91
2022-12-17T06:57:51.735Z,976.97
2022-12-17T06:58:51.709Z,976.96
2022-12-17T06:59:51.686Z,976.99
2022-12-17T07:00:51.755Z,977.05
2022-12-17T07:01:51.826Z,977.07
2022-12-17T07:02:51.778Z,977.05
2022-12-17T07:03:51.594Z,977.11
2022-12-17T07:04:51.575Z,977.15
2022-12-17T07:05:51.576Z,977.14
2022-12-17T07:06:51.585Z,977.17
2022-12-17T07:07:51.510Z,977.13
2022-12-17T07:08:51.490Z,977.11
2022-12-17T07:09:51.466Z,977.15
2022-12-17T07:10:51.449Z,977.14
2022-12-17T07:11:51.463Z,977.14
2022-12-17T07:12:51.407Z,977.17
2022-12-17T07:13:51.402Z,977.13
2022-12-17T07:14:51.365Z,977.16
2022-12-17T07:15:51.345Z,977.13
2022-12-17T07:16:51.407Z,977.17
2022-12-17T07:17:51.300Z,977.22
2022-12-17T07:18:51.290Z,977.21
2022-12-17T07:19:51.257Z,977.24
2022-12-17T07:20:51.238Z,977.27
2022-12-17T07:21:51.217Z,977.32
2022-12-17T07:22:51.197Z,977.28
2022-12-17T07:23:51.173Z,977.27
2022-12-17T07:24:51.156Z,977.35
2022-12-17T07:25:51.131Z,977.34
2022-12-17T07:26:51.112Z,977.40
2022-12-17T07:27:51.089Z,977.39
2022-12-17T07:28:51.072Z,977.37
2022-12-17T07:29:51.068Z,977.39
2022-12-17T07:30:55.608Z,977.42
2022-12-17T07:31:51.094Z,977.40
2022-12-17T07:32:50.985Z,977.42
2022-12-17T07:33:50.962Z,977.42
2022-12-17T07:34:50.947Z,977.46
2022-12-17T07:35:50.921Z,977.44
2022-12-17T07:36:50.903Z,977.41
2022-12-17T07:37:50.879Z,977.47
2022-12-17T07:38:50.861Z,977.49
2022-12-17T07:39:50.837Z,977.49
2022-12-17T07:40:50.820Z,977.48
2022-12-17T07:41:50.793Z,977.45
2022-12-17T07:42:50.781Z,977.45
2022-12-17T07:43:53.227Z,977.53
2022-12-17T07:44:50.736Z,977.51
2022-12-17T07:45:50.828Z,977.53
2022-12-17T07:46:50.696Z,977.56
2022-12-17T07:47:50.670Z,977.56
2022-12-17T07:48:50.652Z,977.56
2022-12-17T07:49:50.631Z,977.55
2022-12-17T07:50:50.611Z,977.53
2022-12-17T07:51:50.587Z,977.56
2022-12-17T07:52:50.569Z,977.56
2022-12-17T07:53:50.556Z,977.63
2022-12-17T07:54:50.528Z,977.64
2022-12-17T07:55:50.504Z,977.65
2022-12-17T07:56:50.487Z,977.69
2022-12-17T07:57:50.467Z,977.69
2022-12-17T07:58:50.446Z,977.74
2022-12-17T07:59:50.423Z,977.77
2022-12-17T08:00:50.450Z,977.80
2022-12-17T08:01:50.643Z,977.75
2022-12-17T08:02:50.517Z,977.73
2022-12-17T08:03:50.348Z,977.80
2022-12-17T08:04:50.322Z,977.80
2022-12-17T08:05:50.298Z,977.81
2022-12-17T08:06:50.282Z,977.80
2022-12-17T08:07:50.258Z,977.86
2022-12-17T08:08:50.242Z,977.87
2022-12-17T08:09:50.215Z,977.84
2022-12-17T08:10:50.198Z,977.90
2022-12-17T08:11:50.175Z,977.94
2022-12-17T08:12:50.158Z,977.95
2022-12-17T08:13:50.144Z,978.09
2022-12-17T08:14:50.116Z,978.07
2022-12-17T08:15:50.092Z,978.06
2022-12-17T08:16:50.200Z,978.07
2022-12-17T08:17:50.070Z,978.07
2022-12-17T08:18:50.040Z,978.23
2022-12-17T08:19:50.014Z,978.16
2022-12-17T08:20:49.993Z,978.18
2022-12-17T08:21:49.969Z,978.21
2022-12-17T08:22:49.950Z,978.20
2022-12-17T08:23:49.928Z,978.22
2022-12-17T08:24:49.913Z,978.19
2022-12-17T08:25:49.886Z,978.34
2022-12-17T08:26:49.869Z,978.32
2022-12-17T08:27:49.866Z,978.36
2022-12-17T08:28:50.988Z,978.43
2022-12-17T08:29:49.827Z,978.50
2022-12-17T08:30:49.837Z,978.45
2022-12-17T08:31:49.765Z,978.55
2022-12-17T08:32:49.746Z,978.49
2022-12-17T08:33:49.744Z,978.56
2022-12-17T08:34:49.707Z,978.55
2022-12-17T08:35:49.682Z,978.56
2022-12-17T08:36:49.664Z,978.57
2022-12-17T08:37:49.639Z,978.62
2022-12-17T08:38:49.624Z,978.59
2022-12-17T08:39:49.647Z,978.67
2022-12-17T08:40:49.581Z,978.66
2022-12-17T08:41:54.212Z,978.67
2022-12-17T08:42:49.542Z,978.66
2022-12-17T08:43:49.521Z,978.71
2022-12-17T08:44:49.500Z,978.57
2022-12-17T08:45:49.555Z,978.58
2022-12-17T08:46:49.458Z,978.67
2022-12-17T08:47:49.433Z,978.68
2022-12-17T08:48:49.417Z,978.60
2022-12-17T08:49:49.430Z,978.65
2022-12-17T08:50:49.376Z,978.63
2022-12-17T08:51:49.351Z,978.62
2022-12-17T08:52:49.334Z,978.69
2022-12-17T08:53:49.310Z,978.68
2022-12-17T08:54:49.293Z,978.71
2022-12-17T08:55:49.267Z,978.70
2022-12-17T08:56:49.251Z,978.65
2022-12-17T08:57:49.226Z,978.77
2022-12-17T08:58:49.208Z,978.64
2022-12-17T08:59:49.185Z,978.64
2022-12-17T09:00:49.167Z,978.69
2022-12-17T09:01:49.228Z,978.76
2022-12-17T09:02:49.245Z,978.72
2022-12-17T09:03:49.167Z,978.75
2022-12-17T09:04:49.084Z,978.77
2022-12-17T09:05:49.085Z,978.79
2022-12-17T09:06:49.043Z,978.84
2022-12-17T09:07:49.021Z,978.76
2022-12-17T09:08:49.002Z,978.75
2022-12-17T09:09:48.976Z,978.75
2022-12-17T09:10:48.960Z,978.67
2022-12-17T09:11:48.937Z,978.76
2022-12-17T09:12:48.918Z,978.79
2022-12-17T09:13:48.892Z,978.72
2022-12-17T09:14:48.878Z,978.72
2022-12-17T09:15:48.852Z,978.73
2022-12-17T09:16:48.900Z,978.73
2022-12-17T09:17:48.811Z,978.73
2022-12-17T09:18:48.797Z,978.75
2022-12-17T09:19:48.769Z,978.83
2022-12-17T09:20:48.751Z,978.78
2022-12-17T09:21:48.747Z,978.83
2022-12-17T09:22:48.717Z,978.83
2022-12-17T09:23:48.686Z,978.84
2022-12-17T09:24:48.668Z,978.96
2022-12-17T09:25:51.439Z,978.80
2022-12-17T09:26:48.628Z,978.88
2022-12-17T09:27:48.604Z,978.87
2022-12-17T09:28:48.586Z,978.87
2022-12-17T09:29:48.561Z,978.90
2022-12-17T09:30:48.624Z,978.82
2022-12-17T09:31:48.521Z,978.94
2022-12-17T09:32:48.508Z,978.93
2022-12-17T09:33:48.532Z,978.93
2022-12-17T09:34:48.467Z,978.85
2022-12-17T09:35:48.438Z,978.88
2022-12-17T09:36:51.307Z,978.98
2022-12-17T09:37:48.422Z,978.94
2022-12-17T09:38:48.385Z,978.97
2022-12-17T09:39:48.358Z,978.98
2022-12-17T09:40:48.341Z,978.95
2022-12-17T09:41:48.317Z,978.95
2022-12-17T09:42:51.103Z,978.98
2022-12-17T09:43:48.275Z,978.96
2022-12-17T09:44:48.256Z,978.95
2022-12-17T09:45:48.346Z,979.02
2022-12-17T09:46:48.218Z,978.93
2022-12-17T09:47:48.194Z,978.99
2022-12-17T09:48:48.173Z,978.92
2022-12-17T09:49:48.156Z,978.92
2022-12-17T09:50:48.134Z,978.88
2022-12-17T09:51:48.114Z,978.83
2022-12-17T09:52:48.092Z,978.83
2022-12-17T09:53:48.092Z,978.80
2022-12-17T09:54:48.051Z,978.88
2022-12-17T09:55:48.042Z,978.85
2022-12-17T09:56:48.010Z,978.91
2022-12-17T09:57:48.001Z,978.91
2022-12-17T09:58:47.969Z,978.90
2022-12-17T09:59:47.953Z,978.84
2022-12-17T10:00:47.927Z,978.92
2022-12-17T10:01:48.027Z,978.90
2022-12-17T10:02:48.039Z,978.87
2022-12-17T10:03:47.957Z,978.93
2022-12-17T10:04:47.846Z,978.85
2022-12-17T10:05:47.829Z,978.90
2022-12-17T10:06:47.807Z,978.85
2022-12-17T10:07:47.790Z,978.94
2022-12-17T10:08:47.765Z,978.89
2022-12-17T10:09:47.769Z,978.83
2022-12-17T10:10:47.726Z,978.86
2022-12-17T10:11:47.712Z,978.79
2022-12-17T10:12:47.684Z,978.83
2022-12-17T10:13:47.667Z,978.87
2022-12-17T10:14:47.643Z,978.81
2022-12-17T10:15:47.710Z,978.86
2022-12-17T10:16:47.603Z,978.88
2022-12-17T10:17:47.587Z,978.96
2022-12-17T10:18:47.563Z,978.86
2022-12-17T10:19:47.548Z,978.95
2022-12-17T10:20:47.522Z,978.91
2022-12-17T10:21:47.504Z,978.93
2022-12-17T10:22:47.481Z,978.95
2022-12-17T10:23:47.471Z,978.92
2022-12-17T10:24:47.440Z,978.88
2022-12-17T10:25:47.442Z,978.87
2022-12-17T10:26:47.399Z,978.88
2022-12-17T10:27:47.384Z,978.90
2022-12-17T10:28:47.360Z,978.95
2022-12-17T10:29:48.584Z,978.90
2022-12-17T10:30:47.420Z,978.95
2022-12-17T10:31:47.302Z,978.91
2022-12-17T10:32:47.279Z,978.89
2022-12-17T10:33:47.262Z,978.87
2022-12-17T10:34:47.236Z,978.85
2022-12-17T10:35:47.222Z,978.88
2022-12-17T10:36:47.196Z,978.86
2022-12-17T10:37:47.230Z,978.79
2022-12-17T10:38:47.159Z,978.82
2022-12-17T10:39:47.140Z,978.80
2022-12-17T10:40:47.116Z,978.82
2022-12-17T10:41:47.117Z,978.79
2022-12-17T10:42:47.075Z,978.83
2022-12-17T10:43:47.060Z,978.78
2022-12-17T10:44:47.037Z,978.82
2022-12-17T10:45:47.020Z,978.78
2022-12-17T10:46:47.144Z,978.84
2022-12-17T10:47:46.976Z,978.82
2022-12-17T10:48:46.954Z,978.80
2022-12-17T10:49:46.938Z,978.77
2022-12-17T10:50:46.912Z,978.79
2022-12-17T10:51:46.897Z,978.80
2022-12-17T10:52:46.872Z,978.77
2022-12-17T10:53:46.855Z,978.73
2022-12-17T10:54:49.310Z,978.75
2022-12-17T10:55:46.823Z,978.80
2022-12-17T10:56:46.791Z,978.78
2022-12-17T10:57:46.798Z,978.80
2022-12-17T10:58:46.752Z,978.79
2022-12-17T10:59:46.737Z,978.78
2022-12-17T11:00:50.148Z,978.82
2022-12-17T11:01:46.871Z,978.87
2022-12-17T11:02:46.988Z,978.91
2022-12-17T11:03:46.759Z,978.94
2022-12-17T11:04:46.630Z,978.91
2022-12-17T11:05:46.616Z,978.92
2022-12-17T11:06:46.591Z,978.91
2022-12-17T11:07:46.576Z,978.94
2022-12-17T11:08:46.551Z,978.97
2022-12-17T11:09:46.534Z,978.95
2022-12-17T11:10:46.510Z,978.93
2022-12-17T11:11:46.494Z,978.85
2022-12-17T11:12:46.469Z,978.80
2022-12-17T11:13:46.473Z,978.89
2022-12-17T11:14:46.431Z,978.89
2022-12-17T11:15:46.447Z,978.91
2022-12-17T11:16:46.391Z,978.86
2022-12-17T11:17:46.373Z,978.89
2022-12-17T11:18:46.350Z,978.96
2022-12-17T11:19:46.336Z,978.93
2022-12-17T11:20:46.309Z,978.96
2022-12-17T11:21:46.293Z,978.86
2022-12-17T11:22:46.270Z,978.84
2022-12-17T11:23:46.255Z,978.90
2022-12-17T11:24:46.228Z,978.97
2022-12-17T11:25:46.214Z,978.89
2022-12-17T11:26:46.191Z,978.97
2022-12-17T11:27:46.173Z,979.02
2022-12-17T11:28:46.149Z,979.00
2022-12-17T11:29:46.153Z,978.98
2022-12-17T11:30:46.299Z,978.92
2022-12-17T11:31:46.143Z,978.89
2022-12-17T11:32:46.068Z,978.91
2022-12-17T11:33:46.052Z,978.94
2022-12-17T11:34:46.028Z,978.91
2022-12-17T11:35:46.012Z,978.82
2022-12-17T11:36:45.992Z,978.87
2022-12-17T11:37:45.972Z,978.89
2022-12-17T11:38:45.948Z,978.77
2022-12-17T11:39:45.936Z,978.85
2022-12-17T11:40:45.906Z,978.78
2022-12-17T11:41:45.889Z,978.77
2022-12-17T11:42:45.868Z,978.79
2022-12-17T11:43:45.900Z,978.73
2022-12-17T11:44:45.828Z,978.73
2022-12-17T11:45:45.827Z,978.80
2022-12-17T11:46:45.841Z,978.79
2022-12-17T11:47:45.770Z,978.79
2022-12-17T11:48:45.744Z,978.74
2022-12-17T11:49:45.728Z,978.80
2022-12-17T11:50:45.708Z,978.82
2022-12-17T11:51:45.686Z,978.86
2022-12-17T11:52:45.663Z,978.91
2022-12-17T11:53:45.646Z,978.91
2022-12-17T11:54:45.625Z,978.92
2022-12-17T11:55:45.605Z,978.95
2022-12-17T11:56:45.584Z,978.92
2022-12-17T11:57:45.564Z,978.89
2022-12-17T11:58:45.545Z,978.89
2022-12-17T11:59:50.976Z,978.84
2022-12-17T12:00:45.501Z,978.88
2022-12-17T12:01:45.677Z,978.88
2022-12-17T12:02:45.533Z,978.87
2022-12-17T12:03:45.613Z,978.84
2022-12-17T12:04:45.420Z,978.85
2022-12-17T12:05:45.403Z,978.85
2022-12-17T12:06:45.380Z,978.85
2022-12-17T12:07:45.365Z,978.85
2022-12-17T12:08:45.344Z,978.86
2022-12-17T12:09:45.323Z,978.80
2022-12-17T12:10:45.305Z,978.82
2022-12-17T12:11:45.285Z,978.89
2022-12-17T12:12:45.262Z,978.83
2022-12-17T12:13:45.243Z,978.81
2022-12-17T12:14:45.222Z,978.83
2022-12-17T12:15:45.275Z,978.84
2022-12-17T12:16:45.228Z,978.86
2022-12-17T12:17:45.190Z,978.83
2022-12-17T12:18:45.141Z,978.83
2022-12-17T12:19:45.127Z,978.83
2022-12-17T12:20:45.104Z,978.81
2022-12-17T12:21:45.086Z,978.84
2022-12-17T12:22:45.063Z,978.86
2022-12-17T12:23:45.048Z,978.84
2022-12-17T12:24:45.024Z,978.83
2022-12-17T12:25:45.010Z,978.82
2022-12-17T12:26:44.985Z,978.86
2022-12-17T12:27:44.971Z,978.82